Union City, Pennsylvania
Current Conditions -  °F | °C
As of 6:17 AM on Tuesday 21 Oct 2014 (Local Time) from KERI Reporting Station
Light Rain Light Rain  
Wind Chill: 54°   Ceiling: 3600
Heat Index: 54°   Visibility: 10mi
Dew Point: 46°   Wind: 6mph
Humidity: 77%   Direction: 340°NNW
Pressure: 29.82"   Gusts: NA
Location:  41.9°N, 79.85°W
Report Text: KERI 211017Z 34005KT 10SM -RA SCT017 BKN036 OVC060 12/08 A2982 RMK AO2 RAB07 P0000 $
Loading
Personal Weather Stations






























Interactive Weather Map
Tropical Storm Tracking
New forecast layout! Learn more

10-Day Weather Forecast

Advertisements
Track Severe Weather on mobile